createdAt,value
2023-01-25T00:01:26.162Z,90.8
2023-01-25T00:21:26.204Z,90.7
2023-01-25T00:41:26.232Z,90.5
2023-01-25T01:01:26.289Z,90.5
2023-01-25T01:21:26.440Z,90.9
2023-01-25T01:41:26.485Z,91.1
2023-01-25T02:01:26.418Z,91.3
2023-01-25T02:21:26.600Z,91.4
2023-01-25T02:41:26.747Z,91.6
2023-01-25T03:01:26.612Z,91.5
2023-01-25T03:21:26.636Z,91.2
2023-01-25T03:41:26.744Z,91.3
2023-01-25T04:01:26.822Z,91.2
2023-01-25T04:21:26.799Z,91.3
2023-01-25T04:41:26.924Z,91.3
2023-01-25T05:01:26.947Z,91.4
2023-01-25T05:21:26.984Z,91.6
2023-01-25T05:41:27.055Z,91.8
2023-01-25T06:01:27.173Z,91.7
2023-01-25T06:21:27.053Z,91.8
2023-01-25T06:41:27.211Z,91.8
2023-01-25T07:01:27.620Z,91.9
2023-01-25T07:21:27.240Z,91.8
2023-01-25T07:41:27.385Z,91.6
2023-01-25T08:01:27.424Z,91.3
2023-01-25T08:21:27.534Z,91.1
2023-01-25T08:41:28.203Z,90.7
2023-01-25T09:01:27.601Z,89.6
2023-01-25T09:21:27.597Z,88.8
2023-01-25T09:41:27.746Z,88.3
2023-01-25T10:01:37.926Z,87.2
2023-01-25T10:21:27.787Z,86.9
2023-01-25T10:41:27.749Z,86.9
2023-01-25T11:01:28.021Z,86.8
2023-01-25T11:21:28.054Z,86.6
2023-01-25T11:41:28.017Z,86.1
2023-01-25T12:01:27.986Z,85.6
2023-01-25T12:21:31.441Z,85.3
2023-01-25T12:41:28.113Z,84.8
2023-01-25T13:01:28.149Z,84.7
2023-01-25T13:21:28.219Z,84.7
2023-01-25T13:41:28.318Z,84.5
2023-01-25T14:01:28.376Z,84.4
2023-01-25T14:21:28.338Z,85
2023-01-25T14:41:28.367Z,84.7
2023-01-25T15:01:28.560Z,85
2023-01-25T15:21:28.537Z,85.3
2023-01-25T15:41:28.651Z,85.8
2023-01-25T16:01:28.660Z,85.9
2023-01-25T16:21:28.694Z,86.4
2023-01-25T16:41:28.750Z,86.7
2023-01-25T17:01:28.923Z,87
2023-01-25T17:21:28.817Z,87
2023-01-25T17:41:28.906Z,87.2
2023-01-25T18:01:28.917Z,87.4
2023-01-25T18:21:28.969Z,87.3
2023-01-25T18:41:29.923Z,87.8
2023-01-25T19:01:29.996Z,87.8
2023-01-25T19:21:29.089Z,87.9
2023-01-25T19:41:29.187Z,88.1
2023-01-25T20:01:29.570Z,88.6
2023-01-25T20:21:29.362Z,88.5
2023-01-25T20:41:29.363Z,88.7
2023-01-25T21:21:29.546Z,88.9
2023-01-25T21:41:29.650Z,88.9
2023-01-25T22:01:29.611Z,89.3
2023-01-25T22:21:29.749Z,89.3
2023-01-25T22:41:29.697Z,89.5
2023-01-25T23:01:29.754Z,89.3
2023-01-25T23:41:29.869Z,89.2
